• Join FlightAware (Why Join?)
  • Login
  • US Flag 
09:34AM EDT


 

Airport Tracker/Info


-or-


 

Live Flight TrackerFlight Track Log ✈ AWE647 ✈ 21-Apr-2013 ✈ KPHX - KONT

Flight Track Log - Related Links

Times and Time Zones

All times are in EDT time to prevent confusion due to time zone crossing. See the AWE647 flight status page for this flight to view local times or setup timezone preferences in your user account.

Time Position Orientation Groundspeed Altitude Reporting Facility
EDT Latitude Longitude Course Direction KTS MPH feet Rate Location/Type
01:28PM 33.4333 -111.9833 273° West 166 191 2,100  Level Phoenix TRACON
01:28PM 33.4333 -111.9500 90° East 160 184 3,600 2,040 Climbing Phoenix TRACON
01:29PM 33.4333 -111.8667 90° East 227 261 5,900 2,700 Climbing Phoenix TRACON
01:30PM 33.4333 -112.3551 270° West  Level FlightAware Approximate
01:30PM 33.3833 -111.8500 164° South 238 274 9,100  Level Phoenix TRACON
01:31PM 33.4371 -112.4734 273° West  Level FlightAware Approximate
01:31PM 33.3167 -111.8667 192° South 246 283 11,900  Level Phoenix TRACON
01:32PM 33.4418 -112.5917 273° West  Level FlightAware Approximate
01:32PM 33.3056 -111.8619 160° South 243 280 12,100  Level Albuquerque Center
01:33PM 33.4465 -112.7099 273° West  Level FlightAware Approximate
01:33PM 33.2431 -111.9167 216° Southwest 283 326 13,700  Level Albuquerque Center
01:34PM 33.2489 -112.0194 274° West 325 374 16,100 2,220 Climbing Albuquerque Center
01:35PM 33.2750 -112.1242 287° West 329 379 18,400 2,460 Climbing Albuquerque Center
01:36PM 33.3089 -112.2553 287° West 342 394 21,300 2,340 Climbing Albuquerque Center
01:37PM 33.3375 -112.3683 287° West 352 405 23,300 2,100 Climbing Albuquerque Center
01:38PM 33.3669 -112.4853 287° West 364 419 25,700 2,040 Climbing Albuquerque Center
01:39PM 33.3961 -112.5972 287° West 355 409 27,600 1,500 Climbing Albuquerque Center
01:40PM 33.4297 -112.7294 287° West 361 415 28,800 1,020 Climbing Albuquerque Center
01:41PM 33.4600 -112.8528 286° West 378 435 29,800 540 Climbing Albuquerque Center
01:42PM 33.4850 -112.9858 283° West 399 459 30,000 60 Climbing Albuquerque Center
01:43PM 33.5097 -113.1147 283° West 402 463 30,000 -60 Level Albuquerque Center
01:44PM 33.5342 -113.2450 283° West 402 463 29,900 -60 Descending Albuquerque Center
01:45PM 33.5639 -113.4019 283° West 403 464 29,900  Level Albuquerque Center
01:46PM 33.5889 -113.5336 283° West 405 466 30,000  Climbing Albuquerque Center
01:47PM 33.6131 -113.6650 282° West 406 467 30,000  Level Albuquerque Center
01:48PM 33.6403 -113.8114 283° West 407 468 30,000  Level Albuquerque Center
01:49PM 33.6653 -113.9450 283° West 410 472 30,000  Level Albuquerque Center
01:50PM 33.6892 -114.0769 282° West 407 468 30,000 -60 Level Albuquerque Center
01:52PM 33.7417 -114.3658 282° West 406 467 29,900  Descending Los Angeles Center
01:53PM 33.7672 -114.5078 282° West 430 495 30,000  Climbing Los Angeles Center
01:55PM 33.7825 -114.6547 277° West 443 510 29,900 -60 Descending Los Angeles Center
01:56PM 33.7917 -114.8314 274° West 444 511 29,900  Level Los Angeles Center
01:57PM 33.7989 -114.9781 273° West 441 507 30,000  Climbing Los Angeles Center
01:58PM 33.8075 -115.1244 274° West 440 506 30,000 -60 Level Los Angeles Center
01:59PM 33.8156 -115.2708 274° West 440 506 29,900  Descending Los Angeles Center
02:00PM 33.8228 -115.4172 273° West 441 507 30,000  Climbing Los Angeles Center
02:01PM 33.8311 -115.5922 273° West 440 506 30,000  Level Los Angeles Center
02:02PM 33.8394 -115.7389 274° West 442 509 30,000  Level Los Angeles Center
02:03PM 33.8458 -115.8867 273° West 444 511 30,000 -720 Level Los Angeles Center
02:04PM 33.8528 -116.0344 273° West 446 513 28,600 -1,740 Descending Los Angeles Center
02:05PM 33.8592 -116.1814 273° West 445 512 26,500 -2,520 Descending Los Angeles Center
02:06PM 33.8681 -116.3494 274° West 423 487 23,400 -2,760 Descending Los Angeles Center
02:07PM 33.8742 -116.4853 273° West 413 475 20,800 -2,520 Descending Los Angeles Center
02:08PM 33.8794 -116.6161 273° West 401 461 18,200 -2,460 Descending Los Angeles Center
02:09PM 33.8850 -116.7411 273° West 384 442 15,800 -2,460 Descending Los Angeles Center
02:10PM 33.9075 -116.8614 283° West 376 433 13,200 -2,160 Descending Los Angeles Center
02:11PM 33.9500 -117.0167 288° West 323 372 11,100 -2,160 Descending Southern California TRACON
02:12PM 33.9833 -117.1000 296° West 289 333 8,600 -2,460 Descending Southern California TRACON
02:13PM 34.0000 -117.1833 284° West 286 329 6,200 -1,980 Descending Southern California TRACON
02:14PM 34.0333 -117.2667 296° West 256 295 4,700 -1,020 Descending Southern California TRACON
02:15PM 34.0500 -117.3500 284° West 222 255 4,200 -540 Descending Southern California TRACON
02:16PM 34.0500 -117.4000 270° West 176 203 3,700 -540 Descending Southern California TRACON